WetterOnline ( http://www.wetteronline.de )

Wetter aktuell Beeskow

Aktuelles Wetter: Lindenberg b. Beeskow (104m)

6-stündlich | Neueste Meldungen
Ortszeit Temperatur Wetter
Di, 22.01. 7:00 -5.6° C wolkig
Di, 22.01. 1:00 -5.1° C Dunst
Mo, 21.01. 19:00 -4.3° C bedeckt
Mo, 21.01. 13:00 -4.4° C bedeckt
Mo, 21.01. 7:00 -4.0° C bedeckt
Mo, 21.01. 1:00 -4.1° C bedeckt
So, 20.01. 19:00 -3.8° C Dunst
So, 20.01. 13:00 -0.5° C wolkenlos
Ortszeit Temperatur Wetter
Di, 22.01. 10:00 -5.1° C fast wolkenlos
Di, 22.01. 9:50 -5.1° C wolkenlos
Di, 22.01. 9:40 -5.4° C wolkenlos
Di, 22.01. 9:30 -5.8° C fast wolkenlos
Di, 22.01. 9:20 -5.8° C wolkenlos
Di, 22.01. 9:10 -6.0° C wolkenlos
Di, 22.01. 9:00 -6.5° C fast wolkenlos
Di, 22.01. 8:30 -6.6° C leicht bewölkt
Di, 22.01. 8:00 -6.2° C wolkig
Di, 22.01. 7:30 -6.0° C wolkig
Di, 22.01. 7:00 -5.6° C wolkig
Ortszeit Relative Feuchte Sichtweite
Di, 22.01. 7:00 90% 5.0 km
Di, 22.01. 1:00 96% 2.0 km
Mo, 21.01. 19:00 92% 5.0 km
Mo, 21.01. 13:00 93% 4.0 km
Mo, 21.01. 7:00 90% 10 km
Mo, 21.01. 1:00 91% 8 km
So, 20.01. 19:00 94% 2.5 km
So, 20.01. 13:00 78% 12 km
Ortszeit Relative Feuchte Sichtweite
Di, 22.01. 10:00 84% 8 km
Di, 22.01. 9:50 84% -
Di, 22.01. 9:40 85% -
Di, 22.01. 9:30 86% 8 km
Di, 22.01. 9:20 86% -
Di, 22.01. 9:10 87% -
Di, 22.01. 9:00 90% 6 km
Di, 22.01. 8:30 90% 6 km
Di, 22.01. 8:00 90% 4.0 km
Di, 22.01. 7:30 90% 4.0 km
Di, 22.01. 7:00 90% 5.0 km
Ortszeit Niederschlagsmenge Niederschlagsart
Di, 22.01. 7:00 0.0 l/m2 in 12 Std. -
Di, 22.01. 1:00 0.0 l/m2 in 6 Std. -
Mo, 21.01. 19:00 0.1 l/m2 in 12 Std. -
Mo, 21.01. 13:00 0.1 l/m2 in 6 Std. Schnee
Mo, 21.01. 7:00 0.0 l/m2 in 12 Std. -
Mo, 21.01. 1:00 0.0 l/m2 in 6 Std. -
So, 20.01. 19:00 0.0 l/m2 in 12 Std. Nebel
So, 20.01. 13:00 0.0 l/m2 in 6 Std. -
Ortszeit Niederschlagsmenge Niederschlagsart
Di, 22.01. 10:00 0.0 l/m2 in 1 Std. -
Di, 22.01. 9:50 keine Meldung -
Di, 22.01. 9:40 keine Meldung -
Di, 22.01. 9:30 0.0 l/m2 in 1 Std. -
Di, 22.01. 9:20 keine Meldung -
Di, 22.01. 9:10 keine Meldung -
Di, 22.01. 9:00 0.0 l/m2 in 1 Std. -
Di, 22.01. 8:30 0.0 l/m2 in 1 Std. -
Di, 22.01. 8:00 0.0 l/m2 in 1 Std. -
Di, 22.01. 7:30 0.0 l/m2 in 1 Std. -
Di, 22.01. 7:00 0.0 l/m2 in 1 Std. -
Ortszeit Stärke Spitze Richtung
km/h Bft. km/h Grad Sektor
Di, 22.01. 7:00 7 2 18 180° S
Di, 22.01. 1:00 9 2 22 200° S
Mo, 21.01. 19:00 13 3 22 190° S
Mo, 21.01. 13:00 9 2 19 220° SW
Mo, 21.01. 7:00 9 2 15 260° W
Mo, 21.01. 1:00 6 1 13 250° W
So, 20.01. 19:00 7 2 22 50° NO
So, 20.01. 13:00 4 1 18 70° O
Ortszeit Stärke Spitze Richtung
km/h Bft. km/h Grad Sektor
Di, 22.01. 10:00 7 2 11 160° S
Di, 22.01. 9:50 7 2 - 160° S
Di, 22.01. 9:40 7 2 - 170° S
Di, 22.01. 9:30 7 2 11 150° SO
Di, 22.01. 9:20 7 2 - 150° SO
Di, 22.01. 9:10 7 2 - 150° SO
Di, 22.01. 9:00 7 2 11 150° SO
Di, 22.01. 8:30 7 2 11 150° SO
Di, 22.01. 8:00 7 2 14 170° S
Di, 22.01. 7:30 7 2 11 180° S
Di, 22.01. 7:00 7 2 18 180° S
Ortszeit Untergrenze Bedeckung Gattung
total tief tief mittel hoch
Di, 22.01. 7:00 1140 m 6/8 6/8 Sc - -
Di, 22.01. 1:00 90 m 7/8 7/8 Sc - -
Mo, 21.01. 19:00 120 m 8/8 7/8 St - -
Mo, 21.01. 13:00 60 m 8/8 8/8 St - -
Mo, 21.01. 7:00 150 m 8/8 8/8 St - -
Mo, 21.01. 1:00 120 m 8/8 7/8 St - -
So, 20.01. 19:00 60 m 8/8 7/8 St - -
So, 20.01. 13:00 - 0/8 0/8 - - -
Ortszeit Bedeckungsgrad in Achtel und Wolkenuntergrenze
Di, 22.01. 10:00 1(3900m)
Di, 22.01. 9:50 keine Wolken
Di, 22.01. 9:40 keine Wolken
Di, 22.01. 9:30 1(1800m)
Di, 22.01. 9:20 keine Wolken
Di, 22.01. 9:10 keine Wolken
Di, 22.01. 9:00 1(1500m)
Di, 22.01. 8:30 2(1500m)
Di, 22.01. 8:00 5(1230m)
Di, 22.01. 7:30 5(1200m)
Di, 22.01. 7:00 6(1140m)
Ortszeit Luftdruck NN (hPa) Tendenz (hPa in 3 Std.)
Di, 22.01. 7:00 1016 - 1,3
Di, 22.01. 1:00 1019 - 1,0
Mo, 21.01. 19:00 1020 - 1,1
Mo, 21.01. 13:00 1023 - 1,0
Mo, 21.01. 7:00 1024 - 0,4
Mo, 21.01. 1:00 1024 + 0,7
So, 20.01. 19:00 1022 + 1,3
So, 20.01. 13:00 1020 + 0,5
Ortszeit Luftdruck NN (hPa) Tendenz (hPa in 3 Std.)
Di, 22.01. 10:00 1015 - 0,4
Di, 22.01. 9:50 1015 keine Meldung
Di, 22.01. 9:40 1015 keine Meldung
Di, 22.01. 9:30 1015 - 0,5
Di, 22.01. 9:20 1015 keine Meldung
Di, 22.01. 9:10 1015 keine Meldung
Di, 22.01. 9:00 1016 - 0,5
Di, 22.01. 8:30 1016 - 0,8
Di, 22.01. 8:00 1016 - 1,0
Di, 22.01. 7:30 1016 - 1,2
Di, 22.01. 7:00 1016 - 1,3
Ortszeit Schneehöhe (cm)
Di, 22.01. 7:00 -
Di, 22.01. 1:00 -
Mo, 21.01. 19:00 -
Mo, 21.01. 13:00 -
Mo, 21.01. 7:00 -
Mo, 21.01. 1:00 -
So, 20.01. 19:00 -
So, 20.01. 13:00 -
Ortszeit Schneehöhe (cm)
Di, 22.01. 10:00 -
Di, 22.01. 9:50 -
Di, 22.01. 9:40 -
Di, 22.01. 9:30 -
Di, 22.01. 9:20 -
Di, 22.01. 9:10 -
Di, 22.01. 9:00 -
Di, 22.01. 8:30 -
Di, 22.01. 8:00 -
Di, 22.01. 7:30 -
Di, 22.01. 7:00 -
Link zu dieser Seite / Seite empfehlen

Das Wetter in ...